createdAt,value
2023-02-02T00:01:55.921Z,0.50
2023-02-02T00:04:26.514Z,0.93
2023-02-02T00:06:57.800Z,0.53
2023-02-02T00:09:29.323Z,0.60
2023-02-02T00:11:57.922Z,1.70
2023-02-02T00:14:25.566Z,1.60
2023-02-02T00:16:55.041Z,1.30
2023-02-02T00:19:28.285Z,1.83
2023-02-02T00:21:56.373Z,1.30
2023-02-02T00:24:24.562Z,0.90
2023-02-02T00:26:55.590Z,2.10
2023-02-02T00:29:32.377Z,0.33
2023-02-02T00:31:59.715Z,1.67
2023-02-02T00:34:26.924Z,3.63
2023-02-02T00:36:54.364Z,0.40
2023-02-02T00:39:27.539Z,2.10
2023-02-02T00:41:55.970Z,0.57
2023-02-02T00:44:41.871Z,1.10
2023-02-02T00:47:09.206Z,1.50
2023-02-02T00:49:37.098Z,0.67
2023-02-02T00:52:04.558Z,2.17
2023-02-02T00:54:31.773Z,1.57
2023-02-02T00:56:59.164Z,2.90
2023-02-02T00:59:26.437Z,1.50
2023-02-02T01:01:53.923Z,2.60
2023-02-02T01:04:21.074Z,3.53
2023-02-02T01:06:48.440Z,0.93
2023-02-02T01:09:15.741Z,2.50
2023-02-02T01:11:43.010Z,1.63
2023-02-02T01:14:10.199Z,0.90
2023-02-02T01:16:37.435Z,2.27
2023-02-02T01:19:04.738Z,1.23
2023-02-02T01:21:32.378Z,1.20
2023-02-02T01:23:59.678Z,0.90
2023-02-02T01:26:27.582Z,0.53
2023-02-02T01:28:54.788Z,1.50
2023-02-02T01:31:22.778Z,0.93
2023-02-02T01:33:51.356Z,1.63
2023-02-02T01:36:24.171Z,0.63
2023-02-02T01:38:51.824Z,1.63
2023-02-02T01:41:25.069Z,1.13
2023-02-02T01:43:59.018Z,1.27
2023-02-02T01:46:30.492Z,2.97
2023-02-02T01:49:19.149Z,0.90
2023-02-02T01:51:56.474Z,0.63
2023-02-02T01:54:36.665Z,2.57
2023-02-02T01:57:12.273Z,1.17
2023-02-02T01:59:40.064Z,2.00
2023-02-02T02:02:08.245Z,1.07
2023-02-02T02:04:35.897Z,0.30
2023-02-02T02:07:06.096Z,1.97
2023-02-02T02:09:34.946Z,1.10
2023-02-02T02:12:02.513Z,2.00
2023-02-02T02:14:48.083Z,0.93
2023-02-02T02:17:41.043Z,1.47
2023-02-02T02:20:48.748Z,1.30
2023-02-02T02:23:53.974Z,1.70
2023-02-02T02:26:50.622Z,1.87
2023-02-02T02:29:48.472Z,0.67
2023-02-02T02:32:21.621Z,1.07
2023-02-02T02:35:18.509Z,0.30
2023-02-02T02:37:51.255Z,0.90
2023-02-02T02:40:47.605Z,0.30
2023-02-02T02:43:43.186Z,0.30
2023-02-02T02:46:12.415Z,0.47
2023-02-02T02:48:40.268Z,1.17
2023-02-02T02:51:39.139Z,1.53
2023-02-02T02:54:07.831Z,0.80
2023-02-02T02:56:41.051Z,1.13
2023-02-02T02:59:39.432Z,0.80
2023-02-02T03:02:11.105Z,0.87
2023-02-02T03:04:45.099Z,0.70
2023-02-02T03:07:22.912Z,0.80
2023-02-02T03:09:52.018Z,0.67
2023-02-02T03:12:19.205Z,0.70
2023-02-02T03:14:46.511Z,1.03
2023-02-02T03:17:13.749Z,0.87
2023-02-02T03:19:42.007Z,1.40
2023-02-02T03:22:09.260Z,0.83
2023-02-02T03:24:36.503Z,1.03
2023-02-02T03:27:03.857Z,0.93
2023-02-02T03:29:31.113Z,0.70
2023-02-02T03:31:58.368Z,0.90
2023-02-02T03:34:25.542Z,1.43
2023-02-02T03:36:52.742Z,0.83
2023-02-02T03:39:19.965Z,0.80
2023-02-02T03:41:47.124Z,0.70
2023-02-02T03:44:14.406Z,1.47
2023-02-02T03:46:41.831Z,0.60
2023-02-02T03:49:09.207Z,1.93
2023-02-02T03:51:36.518Z,1.70
2023-02-02T03:54:03.953Z,1.57
2023-02-02T03:56:32.247Z,0.60
2023-02-02T03:58:59.565Z,1.37
2023-02-02T04:01:30.797Z,0.80
2023-02-02T04:03:59.947Z,2.93
2023-02-02T04:06:27.534Z,0.70
2023-02-02T04:08:54.809Z,1.83
2023-02-02T04:11:22.119Z,0.87
2023-02-02T04:13:49.550Z,2.17
2023-02-02T04:16:16.878Z,0.97
2023-02-02T04:18:44.147Z,1.33
2023-02-02T04:21:11.720Z,2.87
2023-02-02T04:23:39.148Z,3.23
2023-02-02T04:26:06.709Z,2.30
2023-02-02T04:28:34.244Z,1.73
2023-02-02T04:31:01.519Z,1.40
2023-02-02T04:33:29.798Z,1.80
2023-02-02T04:35:57.170Z,1.60
2023-02-02T04:38:24.490Z,2.03
2023-02-02T04:40:51.702Z,2.80
2023-02-02T04:43:18.972Z,1.70
2023-02-02T04:45:46.201Z,1.90
2023-02-02T04:48:13.498Z,4.60
2023-02-02T04:50:40.749Z,1.10
2023-02-02T04:53:08.295Z,1.90
2023-02-02T04:55:39.266Z,2.17
2023-02-02T04:58:06.697Z,1.70
2023-02-02T05:00:34.131Z,1.53
2023-02-02T05:03:01.820Z,2.20
2023-02-02T05:05:28.981Z,1.33
2023-02-02T05:07:56.201Z,2.43
2023-02-02T05:10:23.456Z,4.57
2023-02-02T05:12:53.638Z,2.93
2023-02-02T05:15:21.754Z,3.40
2023-02-02T05:17:50.013Z,1.60
2023-02-02T05:20:17.818Z,1.40
2023-02-02T05:22:48.598Z,2.90
2023-02-02T05:25:15.997Z,2.27
2023-02-02T05:27:47.099Z,1.80
2023-02-02T05:30:15.648Z,2.10
2023-02-02T05:32:42.911Z,1.37
2023-02-02T05:35:11.178Z,3.30
2023-02-02T05:37:38.479Z,2.07
2023-02-02T05:40:06.763Z,1.20
2023-02-02T05:42:34.061Z,1.63
2023-02-02T05:45:01.464Z,1.53
2023-02-02T05:47:29.064Z,1.23
2023-02-02T05:49:56.965Z,2.13
2023-02-02T05:52:25.960Z,3.07
2023-02-02T05:54:53.171Z,3.60
2023-02-02T05:57:20.526Z,1.73
2023-02-02T05:59:47.844Z,1.73
2023-02-02T06:02:15.269Z,2.00
2023-02-02T06:04:42.581Z,4.70
2023-02-02T06:07:09.891Z,3.43
2023-02-02T06:09:37.121Z,2.83
2023-02-02T06:12:05.546Z,1.73
2023-02-02T06:14:32.959Z,3.13
2023-02-02T06:17:00.275Z,2.57
2023-02-02T06:19:27.543Z,2.17
2023-02-02T06:21:54.819Z,4.43
2023-02-02T06:24:22.028Z,3.07
2023-02-02T06:26:49.359Z,2.13
2023-02-02T06:29:16.554Z,2.17
2023-02-02T06:31:43.943Z,2.27
2023-02-02T06:34:15.465Z,2.47
2023-02-02T06:36:43.307Z,2.20
2023-02-02T06:39:10.608Z,2.17
2023-02-02T06:41:37.900Z,1.17
2023-02-02T06:44:05.292Z,1.03
2023-02-02T06:46:32.812Z,1.10
2023-02-02T06:49:00.276Z,5.37
2023-02-02T06:51:27.473Z,5.17
2023-02-02T06:53:55.028Z,4.13
2023-02-02T06:56:23.120Z,2.50
2023-02-02T06:58:50.408Z,3.80
2023-02-02T07:01:18.003Z,2.70
2023-02-02T07:03:50.357Z,2.67
2023-02-02T07:06:24.943Z,3.17
2023-02-02T07:09:02.711Z,3.43
2023-02-02T07:11:35.226Z,3.20
2023-02-02T07:14:05.494Z,3.60
2023-02-02T07:16:32.931Z,1.50
2023-02-02T07:19:00.270Z,1.23
2023-02-02T07:21:36.292Z,1.33
2023-02-02T07:24:05.540Z,1.13
2023-02-02T07:26:36.044Z,4.13
2023-02-02T07:29:04.680Z,1.27
2023-02-02T07:31:34.790Z,2.00
2023-02-02T07:34:03.263Z,1.13
2023-02-02T07:36:30.484Z,4.00
2023-02-02T07:38:58.087Z,2.50
2023-02-02T07:41:25.868Z,1.70
2023-02-02T07:43:53.217Z,1.73
2023-02-02T07:46:20.850Z,4.93
2023-02-02T07:48:48.579Z,1.83
2023-02-02T07:51:18.527Z,9.27
2023-02-02T07:53:47.763Z,5.93
2023-02-02T07:56:17.502Z,11.57
2023-02-02T07:58:45.455Z,8.90
2023-02-02T08:01:15.125Z,3.90
2023-02-02T08:03:43.548Z,4.67
2023-02-02T08:06:23.298Z,2.10
2023-02-02T08:08:51.813Z,3.20
2023-02-02T08:11:21.688Z,6.97
2023-02-02T08:13:50.815Z,5.70
2023-02-02T08:16:18.598Z,6.17
2023-02-02T08:18:46.920Z,3.13
2023-02-02T08:21:14.819Z,3.47
2023-02-02T08:23:43.035Z,6.13
2023-02-02T08:26:12.341Z,3.73
2023-02-02T08:28:42.178Z,2.50
2023-02-02T08:31:16.090Z,2.37
2023-02-02T08:33:43.900Z,5.10
2023-02-02T08:36:19.477Z,2.13
2023-02-02T08:38:47.617Z,2.73
2023-02-02T08:41:17.373Z,4.70
2023-02-02T08:43:44.880Z,3.60
2023-02-02T08:46:15.118Z,3.20
2023-02-02T08:48:42.690Z,2.50
2023-02-02T08:51:12.560Z,1.73
2023-02-02T08:53:40.122Z,2.97
2023-02-02T08:56:20.193Z,3.80
2023-02-02T08:58:58.830Z,3.07
2023-02-02T09:01:29.124Z,3.30
2023-02-02T09:04:01.638Z,2.80
2023-02-02T09:06:33.229Z,3.33
2023-02-02T09:09:00.608Z,2.53
2023-02-02T09:11:28.388Z,2.17
2023-02-02T09:13:57.990Z,3.37
2023-02-02T09:16:28.963Z,4.03
2023-02-02T09:18:56.738Z,4.00
2023-02-02T09:21:24.715Z,4.07
2023-02-02T09:23:54.055Z,4.97
2023-02-02T09:26:27.277Z,2.30
2023-02-02T09:28:57.467Z,5.60
2023-02-02T09:31:26.095Z,3.87
2023-02-02T09:33:53.691Z,4.93
2023-02-02T09:36:27.026Z,4.70
2023-02-02T09:38:55.024Z,3.73
2023-02-02T09:41:37.304Z,3.53
2023-02-02T09:44:29.329Z,2.10
2023-02-02T09:47:15.409Z,3.07
2023-02-02T09:50:18.791Z,3.00
2023-02-02T09:53:19.648Z,2.63
2023-02-02T09:55:50.684Z,4.53
2023-02-02T09:58:33.194Z,4.43
2023-02-02T10:01:10.023Z,2.60
2023-02-02T10:04:05.643Z,4.53
2023-02-02T10:06:40.519Z,2.73
2023-02-02T10:09:44.770Z,2.83
2023-02-02T10:12:30.261Z,2.53
2023-02-02T10:15:20.710Z,2.00
2023-02-02T10:17:56.544Z,3.97
2023-02-02T10:20:56.285Z,4.90
2023-02-02T10:23:42.500Z,3.93
2023-02-02T10:26:50.580Z,2.47
2023-02-02T10:29:23.934Z,3.37
2023-02-02T10:32:23.335Z,2.40
2023-02-02T10:35:24.197Z,4.23
2023-02-02T10:38:10.068Z,3.93
2023-02-02T10:40:43.141Z,3.30
2023-02-02T10:43:48.358Z,3.00
2023-02-02T10:46:51.629Z,3.73
2023-02-02T10:49:33.072Z,10.10
2023-02-02T10:52:12.297Z,4.20
2023-02-02T10:55:07.318Z,5.30
2023-02-02T10:58:06.738Z,6.70
2023-02-02T11:00:46.833Z,3.33
2023-02-02T11:03:16.728Z,4.47
2023-02-02T11:06:02.488Z,5.73
2023-02-02T11:08:34.192Z,3.47
2023-02-02T11:11:20.648Z,5.13
2023-02-02T11:14:02.544Z,3.70
2023-02-02T11:16:42.646Z,3.80
2023-02-02T11:19:22.424Z,4.67
2023-02-02T11:21:56.622Z,6.77
2023-02-02T11:24:26.941Z,4.40
2023-02-02T11:26:56.046Z,5.90
2023-02-02T11:29:42.704Z,5.33
2023-02-02T11:32:32.829Z,9.00
2023-02-02T11:39:16.434Z,4.77
2023-02-02T11:41:44.717Z,4.93
2023-02-02T11:44:27.272Z,5.83
2023-02-02T11:46:57.048Z,5.33
2023-02-02T11:49:25.082Z,3.80
2023-02-02T11:52:05.339Z,2.67
2023-02-02T11:54:35.403Z,4.33
2023-02-02T11:57:08.948Z,2.73
2023-02-02T11:59:42.643Z,3.90
2023-02-02T12:02:13.045Z,6.20
2023-02-02T12:04:41.337Z,7.20
2023-02-02T12:07:32.109Z,2.90
